sensor_id;sensor_type;location;lat;lon;timestamp;P1;durP1;ratioP1;P2;durP2;ratioP2
1589;SDS011;788;48.720;9.158;2022-07-29T00:01:21;10.20;;;9.50;;
1589;SDS011;788;48.720;9.158;2022-07-29T00:03:49;11.33;;;10.53;;
1589;SDS011;788;48.720;9.158;2022-07-29T00:06:16;11.40;;;10.63;;
1589;SDS011;788;48.720;9.158;2022-07-29T00:08:43;14.10;;;12.77;;
1589;SDS011;788;48.720;9.158;2022-07-29T00:11:09;11.03;;;10.23;;
1589;SDS011;788;48.720;9.158;2022-07-29T00:13:36;11.97;;;10.97;;
1589;SDS011;788;48.720;9.158;2022-07-29T00:16:03;10.50;;;9.70;;
1589;SDS011;788;48.720;9.158;2022-07-29T00:18:30;10.23;;;9.43;;
1589;SDS011;788;48.720;9.158;2022-07-29T00:20:58;10.80;;;9.90;;
1589;SDS011;788;48.720;9.158;2022-07-29T00:23:25;9.87;;;9.17;;
1589;SDS011;788;48.720;9.158;2022-07-29T00:25:52;10.93;;;10.00;;
1589;SDS011;788;48.720;9.158;2022-07-29T00:28:20;11.53;;;10.63;;
1589;SDS011;788;48.720;9.158;2022-07-29T00:30:47;12.73;;;11.80;;
1589;SDS011;788;48.720;9.158;2022-07-29T00:33:14;13.07;;;12.07;;
1589;SDS011;788;48.720;9.158;2022-07-29T00:35:41;13.10;;;12.20;;
1589;SDS011;788;48.720;9.158;2022-07-29T00:38:11;10.97;;;10.10;;
1589;SDS011;788;48.720;9.158;2022-07-29T00:40:38;12.80;;;11.80;;
1589;SDS011;788;48.720;9.158;2022-07-29T00:43:05;10.50;;;9.70;;
1589;SDS011;788;48.720;9.158;2022-07-29T00:45:32;11.37;;;10.50;;
1589;SDS011;788;48.720;9.158;2022-07-29T00:47:58;10.40;;;9.47;;
1589;SDS011;788;48.720;9.158;2022-07-29T00:50:25;11.80;;;10.90;;
1589;SDS011;788;48.720;9.158;2022-07-29T00:52:52;11.00;;;10.13;;
1589;SDS011;788;48.720;9.158;2022-07-29T00:55:21;10.40;;;9.70;;
1589;SDS011;788;48.720;9.158;2022-07-29T00:57:47;11.10;;;10.20;;
1589;SDS011;788;48.720;9.158;2022-07-29T01:00:16;10.80;;;10.00;;
1589;SDS011;788;48.720;9.158;2022-07-29T01:02:45;10.30;;;9.50;;
1589;SDS011;788;48.720;9.158;2022-07-29T01:05:13;10.10;;;9.40;;
1589;SDS011;788;48.720;9.158;2022-07-29T01:07:42;8.97;;;8.33;;
1589;SDS011;788;48.720;9.158;2022-07-29T01:10:11;8.57;;;7.87;;
1589;SDS011;788;48.720;9.158;2022-07-29T01:12:41;9.93;;;9.13;;
1589;SDS011;788;48.720;9.158;2022-07-29T01:15:10;9.00;;;8.27;;
1589;SDS011;788;48.720;9.158;2022-07-29T01:17:39;10.53;;;9.73;;
1589;SDS011;788;48.720;9.158;2022-07-29T01:20:10;9.20;;;8.40;;
1589;SDS011;788;48.720;9.158;2022-07-29T01:22:52;9.07;;;8.43;;
1589;SDS011;788;48.720;9.158;2022-07-29T01:25:51;9.20;;;8.40;;
1589;SDS011;788;48.720;9.158;2022-07-29T01:31:28;7.97;;;7.47;;
1589;SDS011;788;48.720;9.158;2022-07-29T01:34:02;7.23;;;6.73;;
1589;SDS011;788;48.720;9.158;2022-07-29T01:36:33;8.67;;;7.97;;
1589;SDS011;788;48.720;9.158;2022-07-29T01:39:06;7.60;;;7.10;;
1589;SDS011;788;48.720;9.158;2022-07-29T01:41:36;7.40;;;6.90;;
1589;SDS011;788;48.720;9.158;2022-07-29T01:44:12;8.67;;;7.77;;
1589;SDS011;788;48.720;9.158;2022-07-29T01:46:44;9.20;;;8.50;;
1589;SDS011;788;48.720;9.158;2022-07-29T01:49:16;8.63;;;8.03;;
1589;SDS011;788;48.720;9.158;2022-07-29T01:51:46;8.33;;;7.70;;
1589;SDS011;788;48.720;9.158;2022-07-29T01:54:18;9.37;;;8.57;;
1589;SDS011;788;48.720;9.158;2022-07-29T01:56:49;7.90;;;7.40;;
1589;SDS011;788;48.720;9.158;2022-07-29T01:59:18;8.83;;;8.20;;
1589;SDS011;788;48.720;9.158;2022-07-29T02:01:48;8.60;;;7.97;;
1589;SDS011;788;48.720;9.158;2022-07-29T02:04:18;8.53;;;7.83;;
1589;SDS011;788;48.720;9.158;2022-07-29T02:06:47;8.53;;;7.93;;
1589;SDS011;788;48.720;9.158;2022-07-29T02:09:17;8.50;;;7.90;;
1589;SDS011;788;48.720;9.158;2022-07-29T02:11:47;8.03;;;7.43;;
1589;SDS011;788;48.720;9.158;2022-07-29T02:14:15;9.27;;;8.57;;
1589;SDS011;788;48.720;9.158;2022-07-29T02:16:46;7.80;;;7.17;;
1589;SDS011;788;48.720;9.158;2022-07-29T02:19:14;8.83;;;8.13;;
1589;SDS011;788;48.720;9.158;2022-07-29T02:21:43;8.37;;;7.67;;
1589;SDS011;788;48.720;9.158;2022-07-29T02:24:11;8.17;;;7.57;;
1589;SDS011;788;48.720;9.158;2022-07-29T02:26:40;8.47;;;7.87;;
1589;SDS011;788;48.720;9.158;2022-07-29T02:29:09;8.30;;;7.70;;
1589;SDS011;788;48.720;9.158;2022-07-29T02:31:39;8.30;;;7.70;;
1589;SDS011;788;48.720;9.158;2022-07-29T02:34:08;8.17;;;7.37;;
1589;SDS011;788;48.720;9.158;2022-07-29T02:36:36;8.13;;;7.53;;
1589;SDS011;788;48.720;9.158;2022-07-29T02:39:03;8.17;;;7.57;;
1589;SDS011;788;48.720;9.158;2022-07-29T02:41:33;8.70;;;8.07;;
1589;SDS011;788;48.720;9.158;2022-07-29T02:44:06;8.70;;;7.90;;
1589;SDS011;788;48.720;9.158;2022-07-29T02:46:41;8.43;;;7.73;;
1589;SDS011;788;48.720;9.158;2022-07-29T02:49:13;8.50;;;7.90;;
1589;SDS011;788;48.720;9.158;2022-07-29T02:51:46;7.63;;;7.10;;
1589;SDS011;788;48.720;9.158;2022-07-29T02:54:20;9.03;;;8.40;;
1589;SDS011;788;48.720;9.158;2022-07-29T02:56:52;7.90;;;7.40;;
1589;SDS011;788;48.720;9.158;2022-07-29T02:59:23;9.47;;;8.83;;
1589;SDS011;788;48.720;9.158;2022-07-29T03:01:55;9.60;;;8.90;;
1589;SDS011;788;48.720;9.158;2022-07-29T03:04:24;8.30;;;7.70;;
1589;SDS011;788;48.720;9.158;2022-07-29T03:06:54;9.13;;;8.43;;
1589;SDS011;788;48.720;9.158;2022-07-29T03:09:24;8.90;;;8.17;;
1589;SDS011;788;48.720;9.158;2022-07-29T03:11:53;8.40;;;7.80;;
1589;SDS011;788;48.720;9.158;2022-07-29T03:14:20;8.40;;;7.70;;
1589;SDS011;788;48.720;9.158;2022-07-29T03:16:49;8.80;;;8.20;;
1589;SDS011;788;48.720;9.158;2022-07-29T03:19:18;8.03;;;7.43;;
1589;SDS011;788;48.720;9.158;2022-07-29T03:21:45;7.93;;;7.33;;
1589;SDS011;788;48.720;9.158;2022-07-29T03:24:23;8.30;;;7.70;;
1589;SDS011;788;48.720;9.158;2022-07-29T03:26:51;9.50;;;8.80;;
1589;SDS011;788;48.720;9.158;2022-07-29T03:29:18;8.93;;;8.33;;
1589;SDS011;788;48.720;9.158;2022-07-29T03:31:45;9.30;;;8.60;;
1589;SDS011;788;48.720;9.158;2022-07-29T03:34:12;9.00;;;8.20;;
1589;SDS011;788;48.720;9.158;2022-07-29T03:36:40;7.90;;;7.30;;
1589;SDS011;788;48.720;9.158;2022-07-29T03:39:06;8.60;;;8.00;;
1589;SDS011;788;48.720;9.158;2022-07-29T03:41:35;8.87;;;8.17;;
1589;SDS011;788;48.720;9.158;2022-07-29T03:44:04;8.73;;;7.93;;
1589;SDS011;788;48.720;9.158;2022-07-29T03:46:32;9.47;;;8.63;;
1589;SDS011;788;48.720;9.158;2022-07-29T03:49:02;11.20;;;9.50;;
1589;SDS011;788;48.720;9.158;2022-07-29T03:51:30;10.00;;;9.10;;
1589;SDS011;788;48.720;9.158;2022-07-29T03:53:58;8.43;;;7.80;;
1589;SDS011;788;48.720;9.158;2022-07-29T03:56:25;9.97;;;9.07;;
1589;SDS011;788;48.720;9.158;2022-07-29T03:58:54;10.20;;;9.30;;
1589;SDS011;788;48.720;9.158;2022-07-29T04:01:21;9.27;;;8.57;;
1589;SDS011;788;48.720;9.158;2022-07-29T04:03:49;9.60;;;8.90;;
1589;SDS011;788;48.720;9.158;2022-07-29T04:06:16;9.10;;;8.30;;
1589;SDS011;788;48.720;9.158;2022-07-29T04:08:43;10.00;;;9.00;;
1589;SDS011;788;48.720;9.158;2022-07-29T04:11:11;10.00;;;9.30;;
1589;SDS011;788;48.720;9.158;2022-07-29T04:13:38;10.10;;;9.40;;
1589;SDS011;788;48.720;9.158;2022-07-29T04:16:05;10.27;;;9.47;;
1589;SDS011;788;48.720;9.158;2022-07-29T04:18:32;9.70;;;8.90;;
1589;SDS011;788;48.720;9.158;2022-07-29T04:20:58;9.67;;;8.77;;
1589;SDS011;788;48.720;9.158;2022-07-29T04:23:26;9.30;;;8.60;;
1589;SDS011;788;48.720;9.158;2022-07-29T04:25:52;10.10;;;9.40;;
1589;SDS011;788;48.720;9.158;2022-07-29T04:28:20;9.20;;;8.40;;
1589;SDS011;788;48.720;9.158;2022-07-29T04:30:47;9.73;;;9.03;;
1589;SDS011;788;48.720;9.158;2022-07-29T04:33:14;9.27;;;8.30;;
1589;SDS011;788;48.720;9.158;2022-07-29T04:35:40;10.10;;;9.20;;
1589;SDS011;788;48.720;9.158;2022-07-29T04:38:07;9.37;;;8.77;;
1589;SDS011;788;48.720;9.158;2022-07-29T04:40:34;9.40;;;8.60;;
1589;SDS011;788;48.720;9.158;2022-07-29T04:43:00;8.27;;;7.57;;
1589;SDS011;788;48.720;9.158;2022-07-29T04:45:28;8.70;;;7.87;;
1589;SDS011;788;48.720;9.158;2022-07-29T04:47:55;8.20;;;7.50;;
1589;SDS011;788;48.720;9.158;2022-07-29T04:50:22;7.70;;;7.10;;
1589;SDS011;788;48.720;9.158;2022-07-29T04:52:49;6.33;;;5.83;;
1589;SDS011;788;48.720;9.158;2022-07-29T04:55:15;7.47;;;6.77;;
1589;SDS011;788;48.720;9.158;2022-07-29T04:57:42;6.07;;;5.60;;
1589;SDS011;788;48.720;9.158;2022-07-29T05:00:09;6.70;;;6.13;;
1589;SDS011;788;48.720;9.158;2022-07-29T05:02:38;6.87;;;6.40;;
1589;SDS011;788;48.720;9.158;2022-07-29T05:05:05;6.97;;;6.37;;
1589;SDS011;788;48.720;9.158;2022-07-29T05:07:32;7.17;;;6.57;;
1589;SDS011;788;48.720;9.158;2022-07-29T05:09:59;7.43;;;6.80;;
1589;SDS011;788;48.720;9.158;2022-07-29T05:12:26;5.90;;;5.40;;
1589;SDS011;788;48.720;9.158;2022-07-29T05:14:53;5.57;;;5.27;;
1589;SDS011;788;48.720;9.158;2022-07-29T05:17:20;5.53;;;5.00;;
1589;SDS011;788;48.720;9.158;2022-07-29T05:19:48;4.80;;;4.50;;
1589;SDS011;788;48.720;9.158;2022-07-29T05:22:16;5.13;;;4.80;;
1589;SDS011;788;48.720;9.158;2022-07-29T05:24:43;4.47;;;4.17;;
1589;SDS011;788;48.720;9.158;2022-07-29T05:27:09;4.53;;;4.30;;
1589;SDS011;788;48.720;9.158;2022-07-29T05:29:36;5.07;;;4.60;;
1589;SDS011;788;48.720;9.158;2022-07-29T05:32:03;5.63;;;5.17;;
1589;SDS011;788;48.720;9.158;2022-07-29T05:34:31;4.77;;;4.37;;
1589;SDS011;788;48.720;9.158;2022-07-29T05:36:59;4.57;;;4.30;;
1589;SDS011;788;48.720;9.158;2022-07-29T05:39:25;5.40;;;5.00;;
1589;SDS011;788;48.720;9.158;2022-07-29T05:41:52;4.97;;;4.67;;
1589;SDS011;788;48.720;9.158;2022-07-29T05:44:19;4.50;;;4.20;;
1589;SDS011;788;48.720;9.158;2022-07-29T05:46:46;5.00;;;4.60;;
1589;SDS011;788;48.720;9.158;2022-07-29T05:49:12;4.53;;;4.23;;
1589;SDS011;788;48.720;9.158;2022-07-29T05:51:39;4.00;;;3.70;;
1589;SDS011;788;48.720;9.158;2022-07-29T05:54:07;4.40;;;4.10;;
1589;SDS011;788;48.720;9.158;2022-07-29T05:56:35;4.83;;;4.47;;
1589;SDS011;788;48.720;9.158;2022-07-29T05:59:02;4.10;;;3.83;;
1589;SDS011;788;48.720;9.158;2022-07-29T06:01:29;4.40;;;4.00;;
1589;SDS011;788;48.720;9.158;2022-07-29T06:03:56;4.23;;;3.93;;
1589;SDS011;788;48.720;9.158;2022-07-29T06:06:23;5.83;;;4.67;;
1589;SDS011;788;48.720;9.158;2022-07-29T06:08:50;7.00;;;4.67;;
1589;SDS011;788;48.720;9.158;2022-07-29T06:11:18;4.87;;;4.57;;
1589;SDS011;788;48.720;9.158;2022-07-29T06:13:44;4.30;;;4.10;;
1589;SDS011;788;48.720;9.158;2022-07-29T06:16:11;4.67;;;4.37;;
1589;SDS011;788;48.720;9.158;2022-07-29T06:18:38;4.93;;;4.53;;
1589;SDS011;788;48.720;9.158;2022-07-29T06:21:07;4.67;;;4.27;;
1589;SDS011;788;48.720;9.158;2022-07-29T06:23:35;4.60;;;4.20;;
1589;SDS011;788;48.720;9.158;2022-07-29T06:26:03;3.87;;;3.67;;
1589;SDS011;788;48.720;9.158;2022-07-29T06:28:31;4.40;;;4.10;;
1589;SDS011;788;48.720;9.158;2022-07-29T06:30:58;4.87;;;4.57;;
1589;SDS011;788;48.720;9.158;2022-07-29T06:33:25;5.07;;;4.67;;
1589;SDS011;788;48.720;9.158;2022-07-29T06:35:51;5.10;;;4.70;;
1589;SDS011;788;48.720;9.158;2022-07-29T06:38:18;4.97;;;4.67;;
1589;SDS011;788;48.720;9.158;2022-07-29T06:40:45;5.63;;;4.73;;
1589;SDS011;788;48.720;9.158;2022-07-29T06:43:36;5.43;;;5.03;;
1589;SDS011;788;48.720;9.158;2022-07-29T06:46:04;5.53;;;4.93;;
1589;SDS011;788;48.720;9.158;2022-07-29T06:48:32;5.50;;;5.10;;
1589;SDS011;788;48.720;9.158;2022-07-29T06:50:59;5.30;;;4.90;;
1589;SDS011;788;48.720;9.158;2022-07-29T06:53:27;6.10;;;5.70;;
1589;SDS011;788;48.720;9.158;2022-07-29T06:55:54;6.43;;;6.00;;
1589;SDS011;788;48.720;9.158;2022-07-29T06:58:21;5.70;;;5.30;;
1589;SDS011;788;48.720;9.158;2022-07-29T07:00:49;5.40;;;5.10;;
1589;SDS011;788;48.720;9.158;2022-07-29T07:03:16;6.30;;;5.70;;
1589;SDS011;788;48.720;9.158;2022-07-29T07:05:44;6.60;;;6.10;;
1589;SDS011;788;48.720;9.158;2022-07-29T07:08:12;6.27;;;5.40;;
1589;SDS011;788;48.720;9.158;2022-07-29T07:10:39;7.17;;;6.10;;
1589;SDS011;788;48.720;9.158;2022-07-29T07:13:06;5.97;;;5.57;;
1589;SDS011;788;48.720;9.158;2022-07-29T07:15:32;6.03;;;5.53;;
1589;SDS011;788;48.720;9.158;2022-07-29T07:18:00;5.27;;;4.97;;
1589;SDS011;788;48.720;9.158;2022-07-29T07:20:27;6.43;;;5.93;;
1589;SDS011;788;48.720;9.158;2022-07-29T07:22:54;5.60;;;5.20;;
1589;SDS011;788;48.720;9.158;2022-07-29T07:25:21;6.27;;;5.80;;
1589;SDS011;788;48.720;9.158;2022-07-29T07:27:48;5.70;;;5.20;;
1589;SDS011;788;48.720;9.158;2022-07-29T07:30:15;6.40;;;6.00;;
1589;SDS011;788;48.720;9.158;2022-07-29T07:32:41;6.30;;;5.93;;
1589;SDS011;788;48.720;9.158;2022-07-29T07:35:10;6.53;;;6.03;;
1589;SDS011;788;48.720;9.158;2022-07-29T07:37:37;6.77;;;6.37;;
1589;SDS011;788;48.720;9.158;2022-07-29T07:40:06;8.03;;;5.60;;
1589;SDS011;788;48.720;9.158;2022-07-29T07:42:33;7.50;;;6.90;;
1589;SDS011;788;48.720;9.158;2022-07-29T07:45:00;5.93;;;5.53;;
1589;SDS011;788;48.720;9.158;2022-07-29T07:47:27;6.00;;;5.50;;
1589;SDS011;788;48.720;9.158;2022-07-29T07:49:54;6.70;;;6.20;;
1589;SDS011;788;48.720;9.158;2022-07-29T07:52:22;6.80;;;5.80;;
1589;SDS011;788;48.720;9.158;2022-07-29T07:54:48;6.63;;;6.03;;
1589;SDS011;788;48.720;9.158;2022-07-29T07:57:16;6.00;;;5.60;;
1589;SDS011;788;48.720;9.158;2022-07-29T07:59:43;5.83;;;5.43;;
1589;SDS011;788;48.720;9.158;2022-07-29T08:02:10;7.20;;;6.70;;
1589;SDS011;788;48.720;9.158;2022-07-29T08:04:38;8.13;;;7.53;;
1589;SDS011;788;48.720;9.158;2022-07-29T08:07:05;6.57;;;5.97;;
1589;SDS011;788;48.720;9.158;2022-07-29T08:09:35;6.80;;;6.40;;
1589;SDS011;788;48.720;9.158;2022-07-29T08:12:02;7.60;;;7.10;;
1589;SDS011;788;48.720;9.158;2022-07-29T08:14:30;6.40;;;5.90;;
1589;SDS011;788;48.720;9.158;2022-07-29T09:18:39;6.87;;;6.47;;
1589;SDS011;788;48.720;9.158;2022-07-29T09:21:07;6.83;;;6.43;;
1589;SDS011;788;48.720;9.158;2022-07-29T09:24:03;7.33;;;6.90;;
1589;SDS011;788;48.720;9.158;2022-07-29T09:26:34;7.50;;;6.80;;
1589;SDS011;788;48.720;9.158;2022-07-29T09:29:10;6.37;;;5.97;;
1589;SDS011;788;48.720;9.158;2022-07-29T09:31:40;6.70;;;6.10;;
1589;SDS011;788;48.720;9.158;2022-07-29T09:34:47;5.83;;;5.53;;
1589;SDS011;788;48.720;9.158;2022-07-29T09:37:25;8.13;;;7.53;;
1589;SDS011;788;48.720;9.158;2022-07-29T09:39:52;7.00;;;6.40;;
1589;SDS011;788;48.720;9.158;2022-07-29T09:42:27;7.50;;;7.00;;
1589;SDS011;788;48.720;9.158;2022-07-29T09:44:55;7.43;;;6.83;;
1589;SDS011;788;48.720;9.158;2022-07-29T09:47:21;6.95;;;6.38;;
1589;SDS011;788;48.720;9.158;2022-07-29T09:49:53;5.87;;;5.57;;
1589;SDS011;788;48.720;9.158;2022-07-29T09:52:23;6.97;;;6.47;;
1589;SDS011;788;48.720;9.158;2022-07-29T09:54:50;7.50;;;6.90;;
1589;SDS011;788;48.720;9.158;2022-07-29T09:57:22;6.63;;;6.13;;
1589;SDS011;788;48.720;9.158;2022-07-29T09:59:56;6.83;;;6.23;;
1589;SDS011;788;48.720;9.158;2022-07-29T10:02:28;7.30;;;6.80;;
1589;SDS011;788;48.720;9.158;2022-07-29T10:05:16;6.63;;;6.10;;
1589;SDS011;788;48.720;9.158;2022-07-29T10:08:24;8.17;;;7.57;;
1589;SDS011;788;48.720;9.158;2022-07-29T10:10:51;7.23;;;6.63;;
1589;SDS011;788;48.720;9.158;2022-07-29T10:13:40;7.43;;;6.73;;
1589;SDS011;788;48.720;9.158;2022-07-29T10:16:07;7.27;;;6.63;;
1589;SDS011;788;48.720;9.158;2022-07-29T10:18:34;6.63;;;6.10;;
1589;SDS011;788;48.720;9.158;2022-07-29T10:21:02;6.80;;;6.40;;
1589;SDS011;788;48.720;9.158;2022-07-29T10:23:30;7.73;;;6.93;;
1589;SDS011;788;48.720;9.158;2022-07-29T10:25:57;7.60;;;7.10;;
1589;SDS011;788;48.720;9.158;2022-07-29T10:28:24;7.40;;;6.90;;
1589;SDS011;788;48.720;9.158;2022-07-29T10:30:51;7.00;;;6.40;;
1589;SDS011;788;48.720;9.158;2022-07-29T10:33:28;7.30;;;6.80;;
1589;SDS011;788;48.720;9.158;2022-07-29T10:36:11;8.03;;;7.43;;
1589;SDS011;788;48.720;9.158;2022-07-29T10:38:48;7.50;;;7.07;;
1589;SDS011;788;48.720;9.158;2022-07-29T10:41:43;7.43;;;7.03;;
1589;SDS011;788;48.720;9.158;2022-07-29T10:44:22;7.10;;;6.60;;
1589;SDS011;788;48.720;9.158;2022-07-29T10:46:51;8.00;;;7.50;;
1589;SDS011;788;48.720;9.158;2022-07-29T10:49:20;7.60;;;7.10;;
1589;SDS011;788;48.720;9.158;2022-07-29T10:54:48;7.73;;;7.17;;
1589;SDS011;788;48.720;9.158;2022-07-29T10:57:17;8.60;;;8.00;;
1589;SDS011;788;48.720;9.158;2022-07-29T10:59:50;8.77;;;8.07;;
1589;SDS011;788;48.720;9.158;2022-07-29T11:02:43;8.13;;;7.53;;
1589;SDS011;788;48.720;9.158;2022-07-29T11:08:35;8.23;;;7.73;;
1589;SDS011;788;48.720;9.158;2022-07-29T11:14:06;12.20;;;11.07;;
1589;SDS011;788;48.720;9.158;2022-07-29T11:19:28;13.90;;;12.57;;
1589;SDS011;788;48.720;9.158;2022-07-29T11:21:55;15.80;;;14.50;;
1589;SDS011;788;48.720;9.158;2022-07-29T11:24:24;14.43;;;13.27;;
1589;SDS011;788;48.720;9.158;2022-07-29T11:27:06;13.37;;;12.27;;
1589;SDS011;788;48.720;9.158;2022-07-29T11:29:47;12.57;;;11.50;;
1589;SDS011;788;48.720;9.158;2022-07-29T11:32:17;11.73;;;10.83;;
1589;SDS011;788;48.720;9.158;2022-07-29T11:34:45;13.77;;;12.37;;
1589;SDS011;788;48.720;9.158;2022-07-29T11:37:13;14.33;;;13.20;;
1589;SDS011;788;48.720;9.158;2022-07-29T11:42:47;15.20;;;13.97;;
1589;SDS011;788;48.720;9.158;2022-07-29T11:45:19;15.70;;;14.40;;
1589;SDS011;788;48.720;9.158;2022-07-29T11:47:48;14.03;;;12.90;;
1589;SDS011;788;48.720;9.158;2022-07-29T11:50:30;14.07;;;12.97;;
1589;SDS011;788;48.720;9.158;2022-07-29T11:53:01;12.00;;;10.97;;
1589;SDS011;788;48.720;9.158;2022-07-29T11:55:37;12.13;;;11.13;;
1589;SDS011;788;48.720;9.158;2022-07-29T11:58:04;18.20;;;13.60;;
1589;SDS011;788;48.720;9.158;2022-07-29T12:00:32;12.67;;;11.70;;
1589;SDS011;788;48.720;9.158;2022-07-29T12:03:01;12.67;;;11.70;;
1589;SDS011;788;48.720;9.158;2022-07-29T12:05:33;11.53;;;10.53;;
1589;SDS011;788;48.720;9.158;2022-07-29T12:08:05;10.63;;;9.73;;
1589;SDS011;788;48.720;9.158;2022-07-29T12:10:34;11.17;;;10.40;;
1589;SDS011;788;48.720;9.158;2022-07-29T12:13:07;10.47;;;9.67;;
1589;SDS011;788;48.720;9.158;2022-07-29T12:15:34;10.13;;;9.33;;
1589;SDS011;788;48.720;9.158;2022-07-29T12:18:13;12.10;;;11.00;;
1589;SDS011;788;48.720;9.158;2022-07-29T12:20:42;9.67;;;8.87;;
1589;SDS011;788;48.720;9.158;2022-07-29T12:23:11;8.73;;;8.13;;
1589;SDS011;788;48.720;9.158;2022-07-29T12:25:55;8.20;;;7.60;;
1589;SDS011;788;48.720;9.158;2022-07-29T12:28:24;8.47;;;7.63;;
1589;SDS011;788;48.720;9.158;2022-07-29T12:30:51;10.30;;;9.40;;
1589;SDS011;788;48.720;9.158;2022-07-29T12:33:19;9.00;;;8.20;;
1589;SDS011;788;48.720;9.158;2022-07-29T12:35:57;9.60;;;8.23;;
1589;SDS011;788;48.720;9.158;2022-07-29T12:44:48;10.77;;;10.07;;
1589;SDS011;788;48.720;9.158;2022-07-29T12:47:17;10.17;;;9.17;;
1589;SDS011;788;48.720;9.158;2022-07-29T12:49:48;11.33;;;10.27;;
1589;SDS011;788;48.720;9.158;2022-07-29T12:52:27;11.03;;;10.03;;
1589;SDS011;788;48.720;9.158;2022-07-29T12:54:55;9.73;;;9.03;;
1589;SDS011;788;48.720;9.158;2022-07-29T12:57:22;10.60;;;9.67;;
1589;SDS011;788;48.720;9.158;2022-07-29T13:00:01;13.67;;;12.23;;
1589;SDS011;788;48.720;9.158;2022-07-29T13:02:40;10.83;;;9.73;;
1589;SDS011;788;48.720;9.158;2022-07-29T13:05:09;11.83;;;10.83;;
1589;SDS011;788;48.720;9.158;2022-07-29T13:07:37;11.93;;;10.83;;
1589;SDS011;788;48.720;9.158;2022-07-29T13:10:12;12.00;;;11.00;;
1589;SDS011;788;48.720;9.158;2022-07-29T13:15:37;12.00;;;10.90;;
1589;SDS011;788;48.720;9.158;2022-07-29T13:18:27;10.70;;;9.83;;
1589;SDS011;788;48.720;9.158;2022-07-29T13:20:55;12.80;;;11.70;;
1589;SDS011;788;48.720;9.158;2022-07-29T13:23:22;10.00;;;9.30;;
1589;SDS011;788;48.720;9.158;2022-07-29T13:25:49;11.90;;;10.97;;
1589;SDS011;788;48.720;9.158;2022-07-29T13:28:16;11.50;;;10.60;;
1589;SDS011;788;48.720;9.158;2022-07-29T13:30:44;12.60;;;11.60;;
1589;SDS011;788;48.720;9.158;2022-07-29T13:33:11;12.13;;;10.97;;
1589;SDS011;788;48.720;9.158;2022-07-29T13:35:38;12.30;;;11.40;;
1589;SDS011;788;48.720;9.158;2022-07-29T13:38:04;14.27;;;11.60;;
1589;SDS011;788;48.720;9.158;2022-07-29T13:40:32;13.40;;;11.80;;
1589;SDS011;788;48.720;9.158;2022-07-29T13:43:00;13.90;;;12.53;;
1589;SDS011;788;48.720;9.158;2022-07-29T13:45:27;14.00;;;13.00;;
1589;SDS011;788;48.720;9.158;2022-07-29T13:47:55;14.90;;;13.70;;
1589;SDS011;788;48.720;9.158;2022-07-29T13:50:24;16.80;;;15.20;;
1589;SDS011;788;48.720;9.158;2022-07-29T13:52:51;15.07;;;13.90;;
1589;SDS011;788;48.720;9.158;2022-07-29T13:55:18;14.43;;;13.13;;
1589;SDS011;788;48.720;9.158;2022-07-29T13:57:45;14.60;;;13.33;;
1589;SDS011;788;48.720;9.158;2022-07-29T14:00:12;14.80;;;13.47;;
1589;SDS011;788;48.720;9.158;2022-07-29T14:02:41;18.30;;;13.47;;
1589;SDS011;788;48.720;9.158;2022-07-29T14:08:43;11.90;;;10.80;;
1589;SDS011;788;48.720;9.158;2022-07-29T14:11:10;13.63;;;12.63;;
1589;SDS011;788;48.720;9.158;2022-07-29T14:13:37;12.13;;;11.13;;
1589;SDS011;788;48.720;9.158;2022-07-29T14:16:04;12.77;;;11.53;;
1589;SDS011;788;48.720;9.158;2022-07-29T14:18:31;10.80;;;9.90;;
1589;SDS011;788;48.720;9.158;2022-07-29T14:21:06;11.00;;;10.10;;
1589;SDS011;788;48.720;9.158;2022-07-29T14:23:32;11.93;;;10.83;;
1589;SDS011;788;48.720;9.158;2022-07-29T14:26:00;12.43;;;11.33;;
1589;SDS011;788;48.720;9.158;2022-07-29T14:28:27;13.00;;;11.87;;
1589;SDS011;788;48.720;9.158;2022-07-29T14:30:54;12.37;;;11.17;;
1589;SDS011;788;48.720;9.158;2022-07-29T14:33:28;13.90;;;12.60;;
1589;SDS011;788;48.720;9.158;2022-07-29T14:35:55;13.10;;;12.10;;
1589;SDS011;788;48.720;9.158;2022-07-29T14:38:36;12.90;;;11.87;;
1589;SDS011;788;48.720;9.158;2022-07-29T14:47:22;11.13;;;10.10;;
1589;SDS011;788;48.720;9.158;2022-07-29T14:49:55;12.77;;;11.47;;
1589;SDS011;788;48.720;9.158;2022-07-29T14:52:44;12.30;;;11.30;;
1589;SDS011;788;48.720;9.158;2022-07-29T14:55:11;11.03;;;9.90;;
1589;SDS011;788;48.720;9.158;2022-07-29T14:57:38;12.30;;;11.20;;
1589;SDS011;788;48.720;9.158;2022-07-29T15:00:07;10.83;;;10.00;;
1589;SDS011;788;48.720;9.158;2022-07-29T15:02:35;10.20;;;9.40;;
1589;SDS011;788;48.720;9.158;2022-07-29T15:05:02;10.80;;;9.90;;
1589;SDS011;788;48.720;9.158;2022-07-29T15:07:30;12.03;;;11.13;;
1589;SDS011;788;48.720;9.158;2022-07-29T15:09:57;11.93;;;11.03;;
1589;SDS011;788;48.720;9.158;2022-07-29T15:12:23;11.47;;;10.57;;
1589;SDS011;788;48.720;9.158;2022-07-29T15:14:50;10.30;;;9.43;;
1589;SDS011;788;48.720;9.158;2022-07-29T15:17:18;11.00;;;10.30;;
1589;SDS011;788;48.720;9.158;2022-07-29T15:19:46;10.37;;;9.67;;
1589;SDS011;788;48.720;9.158;2022-07-29T15:22:13;10.83;;;10.03;;
1589;SDS011;788;48.720;9.158;2022-07-29T15:24:40;10.40;;;9.70;;
1589;SDS011;788;48.720;9.158;2022-07-29T15:27:06;10.90;;;10.20;;
1589;SDS011;788;48.720;9.158;2022-07-29T15:29:43;12.27;;;11.07;;
1589;SDS011;788;48.720;9.158;2022-07-29T15:32:10;11.13;;;10.47;;
1589;SDS011;788;48.720;9.158;2022-07-29T15:34:38;10.43;;;9.60;;
1589;SDS011;788;48.720;9.158;2022-07-29T15:37:05;10.90;;;10.10;;
1589;SDS011;788;48.720;9.158;2022-07-29T15:39:32;10.40;;;9.60;;
1589;SDS011;788;48.720;9.158;2022-07-29T15:45:54;10.70;;;9.67;;
1589;SDS011;788;48.720;9.158;2022-07-29T15:48:38;12.03;;;10.70;;
1589;SDS011;788;48.720;9.158;2022-07-29T15:51:06;11.50;;;10.70;;
1589;SDS011;788;48.720;9.158;2022-07-29T15:53:33;14.20;;;13.10;;
1589;SDS011;788;48.720;9.158;2022-07-29T15:56:00;13.37;;;12.40;;
1589;SDS011;788;48.720;9.158;2022-07-29T15:58:27;12.37;;;11.20;;
1589;SDS011;788;48.720;9.158;2022-07-29T16:00:53;11.77;;;10.87;;
1589;SDS011;788;48.720;9.158;2022-07-29T16:03:20;10.47;;;9.67;;
1589;SDS011;788;48.720;9.158;2022-07-29T16:05:52;11.40;;;10.57;;
1589;SDS011;788;48.720;9.158;2022-07-29T16:08:20;11.53;;;10.77;;
1589;SDS011;788;48.720;9.158;2022-07-29T16:10:47;10.50;;;9.80;;
1589;SDS011;788;48.720;9.158;2022-07-29T16:13:13;11.60;;;10.53;;
1589;SDS011;788;48.720;9.158;2022-07-29T16:15:56;11.90;;;11.10;;
1589;SDS011;788;48.720;9.158;2022-07-29T16:18:35;15.17;;;13.67;;
1589;SDS011;788;48.720;9.158;2022-07-29T16:21:01;16.30;;;14.83;;
1589;SDS011;788;48.720;9.158;2022-07-29T16:23:29;11.47;;;10.70;;
1589;SDS011;788;48.720;9.158;2022-07-29T16:25:56;11.60;;;10.80;;
1589;SDS011;788;48.720;9.158;2022-07-29T16:28:23;11.77;;;10.70;;
1589;SDS011;788;48.720;9.158;2022-07-29T16:30:50;10.23;;;9.47;;
1589;SDS011;788;48.720;9.158;2022-07-29T16:33:17;11.20;;;10.50;;
1589;SDS011;788;48.720;9.158;2022-07-29T16:35:45;11.73;;;10.93;;
1589;SDS011;788;48.720;9.158;2022-07-29T16:38:15;11.93;;;11.00;;
1589;SDS011;788;48.720;9.158;2022-07-29T16:40:43;11.97;;;11.03;;
1589;SDS011;788;48.720;9.158;2022-07-29T16:43:10;10.57;;;9.77;;
1589;SDS011;788;48.720;9.158;2022-07-29T16:45:42;10.40;;;9.50;;
1589;SDS011;788;48.720;9.158;2022-07-29T16:48:09;11.53;;;10.63;;
1589;SDS011;788;48.720;9.158;2022-07-29T16:50:37;11.30;;;10.40;;
1589;SDS011;788;48.720;9.158;2022-07-29T16:53:04;10.10;;;9.10;;
1589;SDS011;788;48.720;9.158;2022-07-29T16:55:30;11.23;;;10.53;;
1589;SDS011;788;48.720;9.158;2022-07-29T16:57:59;10.90;;;10.10;;
1589;SDS011;788;48.720;9.158;2022-07-29T17:00:25;8.30;;;7.80;;
1589;SDS011;788;48.720;9.158;2022-07-29T17:02:52;9.23;;;8.57;;
1589;SDS011;788;48.720;9.158;2022-07-29T17:05:19;9.67;;;9.10;;
1589;SDS011;788;48.720;9.158;2022-07-29T17:07:45;9.33;;;8.57;;
1589;SDS011;788;48.720;9.158;2022-07-29T17:10:13;10.03;;;9.37;;
1589;SDS011;788;48.720;9.158;2022-07-29T17:12:40;9.43;;;8.50;;
1589;SDS011;788;48.720;9.158;2022-07-29T17:15:09;10.50;;;9.50;;
1589;SDS011;788;48.720;9.158;2022-07-29T17:17:37;9.37;;;8.50;;